sensor_id;sensor_type;location;lat;lon;timestamp;pressure;altitude;pressure_sealevel;temperature;humidity
42125;BME280;27787;44.594;11.046;2023-07-02T00:00:21;100260.91;;;23.13;87.56
42125;BME280;27787;44.594;11.046;2023-07-02T00:03:06;100260.81;;;23.14;87.13
42125;BME280;27787;44.594;11.046;2023-07-02T00:05:50;100259.09;;;23.13;87.65
42125;BME280;27787;44.594;11.046;2023-07-02T00:08:34;100268.69;;;23.19;87.22
42125;BME280;27787;44.594;11.046;2023-07-02T00:11:18;100256.69;;;23.24;87.26
42125;BME280;27787;44.594;11.046;2023-07-02T00:14:03;100254.63;;;23.30;86.82
42125;BME280;27787;44.594;11.046;2023-07-02T00:16:47;100253.63;;;23.32;87.54
42125;BME280;27787;44.594;11.046;2023-07-02T00:19:31;100253.53;;;23.34;87.41
42125;BME280;27787;44.594;11.046;2023-07-02T00:22:15;100257.19;;;23.33;87.67
42125;BME280;27787;44.594;11.046;2023-07-02T00:24:59;100246.53;;;23.30;88.10
42125;BME280;27787;44.594;11.046;2023-07-02T00:27:44;100247.66;;;23.25;88.58
42125;BME280;27787;44.594;11.046;2023-07-02T00:30:28;100252.44;;;23.20;89.28
42125;BME280;27787;44.594;11.046;2023-07-02T00:33:13;100260.44;;;23.22;89.22
42125;BME280;27787;44.594;11.046;2023-07-02T00:35:57;100257.66;;;23.23;89.13
42125;BME280;27787;44.594;11.046;2023-07-02T00:38:46;100262.25;;;23.21;89.22
42125;BME280;27787;44.594;11.046;2023-07-02T00:41:31;100261.59;;;23.16;89.72
42125;BME280;27787;44.594;11.046;2023-07-02T00:44:15;100262.72;;;23.12;89.90
42125;BME280;27787;44.594;11.046;2023-07-02T00:46:59;100260.13;;;23.11;89.89
42125;BME280;27787;44.594;11.046;2023-07-02T00:49:43;100253.94;;;23.09;89.87
42125;BME280;27787;44.594;11.046;2023-07-02T00:52:28;100247.78;;;23.07;90.16
42125;BME280;27787;44.594;11.046;2023-07-02T00:55:12;100246.19;;;23.03;90.03
42125;BME280;27787;44.594;11.046;2023-07-02T00:57:57;100250.25;;;22.94;90.87
42125;BME280;27787;44.594;11.046;2023-07-02T01:00:42;100246.19;;;22.85;91.46
42125;BME280;27787;44.594;11.046;2023-07-02T01:03:27;100249.97;;;22.81;91.98
42125;BME280;27787;44.594;11.046;2023-07-02T01:06:12;100248.22;;;22.80;91.52
42125;BME280;27787;44.594;11.046;2023-07-02T01:09:01;100251.06;;;22.77;92.17
42125;BME280;27787;44.594;11.046;2023-07-02T01:11:49;100249.22;;;22.78;92.01
42125;BME280;27787;44.594;11.046;2023-07-02T01:14:38;100250.94;;;22.80;91.97
42125;BME280;27787;44.594;11.046;2023-07-02T01:17:24;100243.59;;;22.84;92.15
42125;BME280;27787;44.594;11.046;2023-07-02T01:20:09;100250.38;;;22.91;91.36
42125;BME280;27787;44.594;11.046;2023-07-02T01:22:54;100253.81;;;22.94;91.09
42125;BME280;27787;44.594;11.046;2023-07-02T01:25:39;100257.53;;;22.92;90.72
42125;BME280;27787;44.594;11.046;2023-07-02T01:28:23;100250.72;;;22.85;91.10
42125;BME280;27787;44.594;11.046;2023-07-02T01:31:08;100261.03;;;22.75;91.65
42125;BME280;27787;44.594;11.046;2023-07-02T01:33:54;100261.66;;;22.63;92.68
42125;BME280;27787;44.594;11.046;2023-07-02T01:36:38;100258.06;;;22.45;94.40
42125;BME280;27787;44.594;11.046;2023-07-02T01:39:23;100265.00;;;22.32;96.11
42125;BME280;27787;44.594;11.046;2023-07-02T01:42:14;100266.13;;;22.28;95.76
42125;BME280;27787;44.594;11.046;2023-07-02T01:45:00;100265.97;;;22.31;95.69
42125;BME280;27787;44.594;11.046;2023-07-02T01:47:44;100265.97;;;22.31;95.83
42125;BME280;27787;44.594;11.046;2023-07-02T01:50:29;100264.22;;;22.30;95.67
42125;BME280;27787;44.594;11.046;2023-07-02T01:53:13;100266.91;;;22.30;95.62
42125;BME280;27787;44.594;11.046;2023-07-02T01:55:57;100260.00;;;22.24;95.58
42125;BME280;27787;44.594;11.046;2023-07-02T01:58:41;100266.41;;;22.22;96.25
42125;BME280;27787;44.594;11.046;2023-07-02T02:01:26;100269.78;;;22.25;96.17
42125;BME280;27787;44.594;11.046;2023-07-02T02:04:11;100260.66;;;22.29;95.95
42125;BME280;27787;44.594;11.046;2023-07-02T02:06:56;100256.06;;;22.31;95.53
42125;BME280;27787;44.594;11.046;2023-07-02T02:09:40;100259.72;;;22.30;95.34
42125;BME280;27787;44.594;11.046;2023-07-02T02:12:24;100262.25;;;22.33;95.49
42125;BME280;27787;44.594;11.046;2023-07-02T02:15:08;100263.91;;;22.36;95.55
42125;BME280;27787;44.594;11.046;2023-07-02T02:17:53;100257.72;;;22.34;95.33
42125;BME280;27787;44.594;11.046;2023-07-02T02:20:38;100257.09;;;22.29;95.34
42125;BME280;27787;44.594;11.046;2023-07-02T02:23:23;100264.41;;;22.25;96.12
42125;BME280;27787;44.594;11.046;2023-07-02T02:26:07;100271.78;;;22.22;96.09
42125;BME280;27787;44.594;11.046;2023-07-02T02:28:52;100271.06;;;22.18;96.73
42125;BME280;27787;44.594;11.046;2023-07-02T02:31:37;100265.00;;;22.13;96.65
42125;BME280;27787;44.594;11.046;2023-07-02T02:34:22;100271.50;;;22.09;96.95
42125;BME280;27787;44.594;11.046;2023-07-02T02:37:06;100261.81;;;22.05;97.44
42125;BME280;27787;44.594;11.046;2023-07-02T02:39:51;100265.53;;;22.02;97.77
42125;BME280;27787;44.594;11.046;2023-07-02T02:42:35;100268.28;;;22.01;97.72
42125;BME280;27787;44.594;11.046;2023-07-02T02:45:21;100262.00;;;22.00;97.74
42125;BME280;27787;44.594;11.046;2023-07-02T02:48:05;100263.91;;;21.98;98.18
42125;BME280;27787;44.594;11.046;2023-07-02T02:50:49;100264.06;;;21.95;97.82
42125;BME280;27787;44.594;11.046;2023-07-02T02:53:34;100273.22;;;21.91;98.13
42125;BME280;27787;44.594;11.046;2023-07-02T02:56:18;100272.50;;;21.88;98.07
42125;BME280;27787;44.594;11.046;2023-07-02T02:59:02;100270.00;;;21.83;98.03
42125;BME280;27787;44.594;11.046;2023-07-02T03:01:46;100272.78;;;21.82;97.93
42125;BME280;27787;44.594;11.046;2023-07-02T03:04:31;100274.44;;;21.84;97.74
42125;BME280;27787;44.594;11.046;2023-07-02T03:07:16;100274.28;;;21.87;97.43
42125;BME280;27787;44.594;11.046;2023-07-02T03:10:00;100275.91;;;21.91;96.91
42125;BME280;27787;44.594;11.046;2023-07-02T03:12:47;100278.44;;;21.94;96.61
42125;BME280;27787;44.594;11.046;2023-07-02T03:15:31;100278.44;;;21.94;96.95
42125;BME280;27787;44.594;11.046;2023-07-02T03:18:15;100272.91;;;21.97;95.89
42125;BME280;27787;44.594;11.046;2023-07-02T03:20:59;100283.50;;;22.00;95.77
42125;BME280;27787;44.594;11.046;2023-07-02T03:23:43;100281.66;;;22.02;95.39
42125;BME280;27787;44.594;11.046;2023-07-02T03:26:28;100283.31;;;22.05;95.01
42125;BME280;27787;44.594;11.046;2023-07-02T03:29:12;100283.19;;;22.08;94.80
42125;BME280;27787;44.594;11.046;2023-07-02T03:31:57;100279.47;;;22.11;94.45
42125;BME280;27787;44.594;11.046;2023-07-02T03:34:41;100286.75;;;22.08;95.42
42125;BME280;27787;44.594;11.046;2023-07-02T03:37:25;100290.22;;;22.11;95.32
42125;BME280;27787;44.594;11.046;2023-07-02T03:40:09;100289.28;;;22.12;94.94
42125;BME280;27787;44.594;11.046;2023-07-02T03:42:54;100294.75;;;22.10;94.98
42125;BME280;27787;44.594;11.046;2023-07-02T03:45:38;100287.69;;;22.07;95.04
42125;BME280;27787;44.594;11.046;2023-07-02T03:48:22;100300.28;;;22.07;95.63
42125;BME280;27787;44.594;11.046;2023-07-02T03:51:06;100297.72;;;22.04;95.13
42125;BME280;27787;44.594;11.046;2023-07-02T03:53:51;100301.47;;;22.00;95.15
42125;BME280;27787;44.594;11.046;2023-07-02T03:56:35;100301.69;;;21.95;95.74
42125;BME280;27787;44.594;11.046;2023-07-02T03:59:19;100300.25;;;21.88;96.25
42125;BME280;27787;44.594;11.046;2023-07-02T04:02:04;100304.00;;;21.84;97.34
42125;BME280;27787;44.594;11.046;2023-07-02T04:04:48;100312.06;;;21.84;97.19
42125;BME280;27787;44.594;11.046;2023-07-02T04:07:32;100315.63;;;21.85;97.07
42125;BME280;27787;44.594;11.046;2023-07-02T04:10:16;100319.09;;;21.87;96.65
42125;BME280;27787;44.594;11.046;2023-07-02T04:13:01;100313.69;;;21.88;96.45
42125;BME280;27787;44.594;11.046;2023-07-02T04:15:45;100324.28;;;21.91;95.73
42125;BME280;27787;44.594;11.046;2023-07-02T04:18:30;100322.47;;;21.92;96.03
42125;BME280;27787;44.594;11.046;2023-07-02T04:21:14;100321.38;;;21.96;95.37
42125;BME280;27787;44.594;11.046;2023-07-02T04:23:58;100324.94;;;21.96;95.51
42125;BME280;27787;44.594;11.046;2023-07-02T04:26:42;100322.16;;;21.98;95.81
42125;BME280;27787;44.594;11.046;2023-07-02T04:29:27;100333.59;;;22.03;95.85
42125;BME280;27787;44.594;11.046;2023-07-02T04:32:11;100337.75;;;22.10;95.29
42125;BME280;27787;44.594;11.046;2023-07-02T04:34:56;100343.88;;;22.14;94.91
42125;BME280;27787;44.594;11.046;2023-07-02T04:37:40;100342.13;;;22.13;94.72
42125;BME280;27787;44.594;11.046;2023-07-02T04:40:24;100342.13;;;22.13;94.76
42125;BME280;27787;44.594;11.046;2023-07-02T04:43:08;100346.97;;;22.04;94.75
42125;BME280;27787;44.594;11.046;2023-07-02T04:45:53;100354.34;;;21.99;95.44
42125;BME280;27787;44.594;11.046;2023-07-02T04:48:38;100353.63;;;21.96;95.88
42125;BME280;27787;44.594;11.046;2023-07-02T04:51:22;100350.06;;;21.95;96.34
42125;BME280;27787;44.594;11.046;2023-07-02T04:54:06;100345.63;;;21.94;96.26
42125;BME280;27787;44.594;11.046;2023-07-02T04:56:50;100350.06;;;21.95;96.20
42125;BME280;27787;44.594;11.046;2023-07-02T04:59:35;100357.03;;;21.99;96.18
42125;BME280;27787;44.594;11.046;2023-07-02T05:02:19;100354.22;;;22.02;96.10
42125;BME280;27787;44.594;11.046;2023-07-02T05:05:03;100356.81;;;22.05;95.97
42125;BME280;27787;44.594;11.046;2023-07-02T05:07:47;100355.84;;;22.06;96.15
42125;BME280;27787;44.594;11.046;2023-07-02T05:10:32;100356.66;;;22.08;96.23
42125;BME280;27787;44.594;11.046;2023-07-02T05:13:16;100358.84;;;22.19;96.04
42125;BME280;27787;44.594;11.046;2023-07-02T05:16:00;100365.66;;;22.26;95.08
42125;BME280;27787;44.594;11.046;2023-07-02T05:18:44;100371.78;;;22.30;94.30
42125;BME280;27787;44.594;11.046;2023-07-02T05:21:28;100370.03;;;22.29;94.44
42125;BME280;27787;44.594;11.046;2023-07-02T05:24:13;100373.69;;;22.28;95.28
42125;BME280;27787;44.594;11.046;2023-07-02T05:26:57;100376.28;;;22.29;95.35
42125;BME280;27787;44.594;11.046;2023-07-02T05:29:42;100369.19;;;22.28;96.26
42125;BME280;27787;44.594;11.046;2023-07-02T05:32:27;100380.81;;;22.29;95.47
42125;BME280;27787;44.594;11.046;2023-07-02T05:35:11;100372.50;;;22.33;95.77
42125;BME280;27787;44.594;11.046;2023-07-02T05:37:55;100378.53;;;22.38;95.43
42125;BME280;27787;44.594;11.046;2023-07-02T05:40:39;100375.84;;;22.38;95.67
42125;BME280;27787;44.594;11.046;2023-07-02T05:43:23;100376.66;;;22.41;95.57
42125;BME280;27787;44.594;11.046;2023-07-02T05:46:08;100371.13;;;22.44;94.43
42125;BME280;27787;44.594;11.046;2023-07-02T05:48:52;100372.94;;;22.43;94.00
42125;BME280;27787;44.594;11.046;2023-07-02T05:51:39;100378.34;;;22.43;94.25
42125;BME280;27787;44.594;11.046;2023-07-02T05:54:23;100380.88;;;22.46;94.23
42125;BME280;27787;44.594;11.046;2023-07-02T05:57:07;100378.03;;;22.49;93.93
42125;BME280;27787;44.594;11.046;2023-07-02T05:59:51;100371.41;;;22.56;93.50
42125;BME280;27787;44.594;11.046;2023-07-02T06:02:36;100375.53;;;22.63;93.87
42125;BME280;27787;44.594;11.046;2023-07-02T06:05:20;100378.81;;;22.70;92.41
42125;BME280;27787;44.594;11.046;2023-07-02T06:08:04;100381.09;;;22.78;92.00
42125;BME280;27787;44.594;11.046;2023-07-02T06:10:49;100387.03;;;22.86;91.96
42125;BME280;27787;44.594;11.046;2023-07-02T06:13:33;100389.44;;;22.92;91.12
42125;BME280;27787;44.594;11.046;2023-07-02T06:16:17;100388.16;;;22.99;91.08
42125;BME280;27787;44.594;11.046;2023-07-02T06:19:01;100397.75;;;23.05;90.85
42125;BME280;27787;44.594;11.046;2023-07-02T06:21:46;100401.19;;;23.08;90.11
42125;BME280;27787;44.594;11.046;2023-07-02T06:24:30;100404.66;;;23.10;90.04
42125;BME280;27787;44.594;11.046;2023-07-02T06:27:15;100401.81;;;23.13;89.94
42125;BME280;27787;44.594;11.046;2023-07-02T06:29:59;100400.78;;;23.16;89.83
42125;BME280;27787;44.594;11.046;2023-07-02T06:32:43;100405.16;;;23.18;90.00
42125;BME280;27787;44.594;11.046;2023-07-02T06:35:27;100400.41;;;23.23;90.13
42125;BME280;27787;44.594;11.046;2023-07-02T06:38:11;100407.19;;;23.31;89.97
42125;BME280;27787;44.594;11.046;2023-07-02T06:40:56;100401.53;;;23.37;89.24
42125;BME280;27787;44.594;11.046;2023-07-02T06:43:42;100402.13;;;23.42;88.76
42125;BME280;27787;44.594;11.046;2023-07-02T06:46:26;100397.50;;;23.45;88.64
42125;BME280;27787;44.594;11.046;2023-07-02T06:49:10;100404.47;;;23.49;88.71
42125;BME280;27787;44.594;11.046;2023-07-02T06:51:55;100409.50;;;23.55;89.08
42125;BME280;27787;44.594;11.046;2023-07-02T06:54:38;100405.75;;;23.60;89.05
42125;BME280;27787;44.594;11.046;2023-07-02T06:57:23;100408.38;;;23.61;nan
42125;BME280;27787;44.594;11.046;2023-07-02T07:00:07;100397.44;;;23.64;86.47
42125;BME280;27787;44.594;11.046;2023-07-02T07:02:52;100401.56;;;23.71;86.30
42125;BME280;27787;44.594;11.046;2023-07-02T07:05:36;100404.09;;;23.74;85.91
42125;BME280;27787;44.594;11.046;2023-07-02T07:08:20;100405.81;;;23.75;85.84
42125;BME280;27787;44.594;11.046;2023-07-02T07:11:04;100411.13;;;23.77;85.67
42125;BME280;27787;44.594;11.046;2023-07-02T07:13:48;100410.97;;;23.80;85.41
42125;BME280;27787;44.594;11.046;2023-07-02T07:16:32;100409.13;;;23.80;84.57
42125;BME280;27787;44.594;11.046;2023-07-02T07:19:17;100408.03;;;23.85;84.41
42125;BME280;27787;44.594;11.046;2023-07-02T07:22:01;100412.47;;;23.86;83.95
42125;BME280;27787;44.594;11.046;2023-07-02T07:24:45;100411.53;;;23.87;83.53
42125;BME280;27787;44.594;11.046;2023-07-02T07:27:29;100414.03;;;23.90;82.58
42125;BME280;27787;44.594;11.046;2023-07-02T07:30:13;100416.56;;;23.93;82.70
42125;BME280;27787;44.594;11.046;2023-07-02T07:32:58;100412.78;;;23.97;82.36
42125;BME280;27787;44.594;11.046;2023-07-02T07:35:43;100413.31;;;24.03;82.32
42125;BME280;27787;44.594;11.046;2023-07-02T07:38:27;100411.31;;;24.07;82.94
42125;BME280;27787;44.594;11.046;2023-07-02T07:41:11;100410.22;;;24.11;83.30
42125;BME280;27787;44.594;11.046;2023-07-02T07:43:55;100409.00;;;24.17;82.92
42125;BME280;27787;44.594;11.046;2023-07-02T07:46:39;100407.84;;;24.21;82.35
42125;BME280;27787;44.594;11.046;2023-07-02T07:49:23;100407.53;;;24.27;82.71
42125;BME280;27787;44.594;11.046;2023-07-02T07:52:08;100402.88;;;24.30;81.98
42125;BME280;27787;44.594;11.046;2023-07-02T07:54:52;100408.16;;;24.32;82.02
42125;BME280;27787;44.594;11.046;2023-07-02T07:57:37;100407.06;;;24.36;82.01
42125;BME280;27787;44.594;11.046;2023-07-02T08:00:21;100419.50;;;24.38;82.10
42125;BME280;27787;44.594;11.046;2023-07-02T08:03:05;100417.50;;;24.42;81.98
42125;BME280;27787;44.594;11.046;2023-07-02T08:05:50;100419.06;;;24.46;82.31
42125;BME280;27787;44.594;11.046;2023-07-02T08:08:34;100417.88;;;24.52;82.48
42125;BME280;27787;44.594;11.046;2023-07-02T08:11:18;100416.66;;;24.57;82.10
42125;BME280;27787;44.594;11.046;2023-07-02T08:14:02;100418.28;;;24.60;82.15
42125;BME280;27787;44.594;11.046;2023-07-02T08:16:46;100418.16;;;24.63;81.92
42125;BME280;27787;44.594;11.046;2023-07-02T08:19:30;100413.44;;;24.66;82.09
42125;BME280;27787;44.594;11.046;2023-07-02T08:22:14;100420.31;;;24.72;82.25
42125;BME280;27787;44.594;11.046;2023-07-02T08:24:58;100425.47;;;24.77;82.16
42125;BME280;27787;44.594;11.046;2023-07-02T08:27:43;100418.16;;;24.79;80.97
42125;BME280;27787;44.594;11.046;2023-07-02T08:30:27;100426.16;;;24.80;80.10
42125;BME280;27787;44.594;11.046;2023-07-02T08:33:11;100421.53;;;24.82;78.60
42125;BME280;27787;44.594;11.046;2023-07-02T08:35:56;100424.84;;;24.87;78.15
42125;BME280;27787;44.594;11.046;2023-07-02T08:38:41;100424.59;;;24.92;77.98
42125;BME280;27787;44.594;11.046;2023-07-02T08:41:27;100422.56;;;24.95;77.39
42125;BME280;27787;44.594;11.046;2023-07-02T08:44:13;100434.94;;;24.99;76.34
42125;BME280;27787;44.594;11.046;2023-07-02T08:46:58;100420.53;;;25.01;75.75
42125;BME280;27787;44.594;11.046;2023-07-02T08:49:42;100414.06;;;25.03;75.79
42125;BME280;27787;44.594;11.046;2023-07-02T08:52:26;100425.47;;;25.08;76.35
42125;BME280;27787;44.594;11.046;2023-07-02T08:55:11;100423.44;;;25.12;76.62
42125;BME280;27787;44.594;11.046;2023-07-02T08:57:56;100421.47;;;25.15;76.87
42125;BME280;27787;44.594;11.046;2023-07-02T09:01:12;100416.75;;;25.19;76.86
42125;BME280;27787;44.594;11.046;2023-07-02T09:03:59;100427.25;;;25.23;76.04
42125;BME280;27787;44.594;11.046;2023-07-02T09:06:45;100430.59;;;25.28;76.23
42125;BME280;27787;44.594;11.046;2023-07-02T09:09:30;100426.06;;;25.29;75.72
42125;BME280;27787;44.594;11.046;2023-07-02T09:12:28;100419.59;;;25.32;75.86
42125;BME280;27787;44.594;11.046;2023-07-02T09:15:14;100415.63;;;25.37;75.63
42125;BME280;27787;44.594;11.046;2023-07-02T09:17:57;100419.16;;;25.39;75.71
42125;BME280;27787;44.594;11.046;2023-07-02T09:20:41;100414.63;;;25.40;75.98
42125;BME280;27787;44.594;11.046;2023-07-02T09:23:35;100421.75;;;25.41;75.76
42125;BME280;27787;44.594;11.046;2023-07-02T09:26:23;100420.41;;;25.48;74.03
42125;BME280;27787;44.594;11.046;2023-07-02T09:29:07;100411.94;;;25.54;73.13
42125;BME280;27787;44.594;11.046;2023-07-02T09:31:52;100409.91;;;25.57;73.67
42125;BME280;27787;44.594;11.046;2023-07-02T09:34:38;100413.31;;;25.61;74.13
42125;BME280;27787;44.594;11.046;2023-07-02T09:37:24;100415.03;;;25.62;73.28
42125;BME280;27787;44.594;11.046;2023-07-02T09:40:08;100407.03;;;25.61;73.38
42125;BME280;27787;44.594;11.046;2023-07-02T09:42:54;100407.78;;;25.63;73.17
42125;BME280;27787;44.594;11.046;2023-07-02T09:45:43;100416.00;;;25.61;71.47
42125;BME280;27787;44.594;11.046;2023-07-02T09:48:28;100413.97;;;25.65;71.89
42125;BME280;27787;44.594;11.046;2023-07-02T09:51:15;100401.09;;;25.70;71.75
42125;BME280;27787;44.594;11.046;2023-07-02T09:54:00;100421.47;;;25.75;71.62
42125;BME280;27787;44.594;11.046;2023-07-02T09:56:45;100415.63;;;25.83;71.58
42125;BME280;27787;44.594;11.046;2023-07-02T09:59:30;100417.34;;;25.84;71.79
42125;BME280;27787;44.594;11.046;2023-07-02T10:02:14;100408.47;;;25.82;71.85
42125;BME280;27787;44.594;11.046;2023-07-02T10:04:59;100405.00;;;25.80;71.90
42125;BME280;27787;44.594;11.046;2023-07-02T10:07:43;100397.66;;;25.82;71.91
42125;BME280;27787;44.594;11.046;2023-07-02T10:10:31;100405.78;;;25.96;70.90
42125;BME280;27787;44.594;11.046;2023-07-02T10:13:26;100408.59;;;26.09;71.30
42125;BME280;27787;44.594;11.046;2023-07-02T10:16:10;100402.78;;;26.15;72.68
42125;BME280;27787;44.594;11.046;2023-07-02T10:18:55;100397.25;;;26.16;72.51
42125;BME280;27787;44.594;11.046;2023-07-02T10:21:39;100399.09;;;26.16;72.13
42125;BME280;27787;44.594;11.046;2023-07-02T10:24:23;100402.50;;;26.20;70.55
42125;BME280;27787;44.594;11.046;2023-07-02T10:27:07;100408.97;;;26.31;69.84
42125;BME280;27787;44.594;11.046;2023-07-02T10:29:52;100406.34;;;26.30;69.33
42125;BME280;27787;44.594;11.046;2023-07-02T10:32:37;100408.09;;;26.31;69.35
42125;BME280;27787;44.594;11.046;2023-07-02T10:35:22;100401.16;;;26.41;68.74
42125;BME280;27787;44.594;11.046;2023-07-02T10:38:06;100399.31;;;26.41;69.69
42125;BME280;27787;44.594;11.046;2023-07-02T10:40:57;100400.97;;;26.44;69.61
42125;BME280;27787;44.594;11.046;2023-07-02T10:43:41;100395.16;;;26.50;67.77
42125;BME280;27787;44.594;11.046;2023-07-02T10:46:25;100401.50;;;26.63;67.50
42125;BME280;27787;44.594;11.046;2023-07-02T10:49:09;100401.25;;;26.81;67.53
42125;BME280;27787;44.594;11.046;2023-07-02T10:52:00;100402.59;;;27.02;65.80
42125;BME280;27787;44.594;11.046;2023-07-02T10:54:46;100395.81;;;27.09;64.41
42125;BME280;27787;44.594;11.046;2023-07-02T10:57:31;100400.34;;;27.09;66.29
42125;BME280;27787;44.594;11.046;2023-07-02T11:00:16;100400.25;;;27.10;64.09
42125;BME280;27787;44.594;11.046;2023-07-02T11:03:03;100408.28;;;26.97;64.60
42125;BME280;27787;44.594;11.046;2023-07-02T11:05:48;100399.03;;;26.87;66.15
42125;BME280;27787;44.594;11.046;2023-07-02T11:08:36;100390.53;;;26.79;66.69
42125;BME280;27787;44.594;11.046;2023-07-02T11:11:21;100389.00;;;26.75;67.14
42125;BME280;27787;44.594;11.046;2023-07-02T11:14:06;100392.28;;;26.80;67.39
42125;BME280;27787;44.594;11.046;2023-07-02T11:16:54;100399.91;;;26.88;67.55
42125;BME280;27787;44.594;11.046;2023-07-02T11:19:38;100388.66;;;26.94;66.59
42125;BME280;27787;44.594;11.046;2023-07-02T11:22:31;100397.06;;;27.03;65.42
42125;BME280;27787;44.594;11.046;2023-07-02T11:25:17;100392.13;;;27.10;65.48
42125;BME280;27787;44.594;11.046;2023-07-02T11:28:05;100400.47;;;27.20;65.30
42125;BME280;27787;44.594;11.046;2023-07-02T11:30:49;100396.50;;;27.25;64.37
42125;BME280;27787;44.594;11.046;2023-07-02T11:33:38;100387.06;;;27.31;63.41
42125;BME280;27787;44.594;11.046;2023-07-02T11:36:23;100386.00;;;27.33;62.60
42125;BME280;27787;44.594;11.046;2023-07-02T11:39:10;100392.09;;;27.37;62.95
42125;BME280;27787;44.594;11.046;2023-07-02T11:41:56;100390.25;;;27.38;63.10
42125;BME280;27787;44.594;11.046;2023-07-02T11:44:40;100385.59;;;27.40;62.80
42125;BME280;27787;44.594;11.046;2023-07-02T11:47:25;100389.69;;;27.45;63.80
42125;BME280;27787;44.594;11.046;2023-07-02T11:50:11;100383.97;;;27.50;63.29
42125;BME280;27787;44.594;11.046;2023-07-02T11:52:55;100382.91;;;27.52;63.05
42125;BME280;27787;44.594;11.046;2023-07-02T11:55:39;100381.81;;;27.55;62.08
42125;BME280;27787;44.594;11.046;2023-07-02T11:58:24;100373.56;;;27.56;61.92
42125;BME280;27787;44.594;11.046;2023-07-02T12:01:08;100375.69;;;27.66;62.41
42125;BME280;27787;44.594;11.046;2023-07-02T12:03:52;100377.75;;;27.75;62.07
42125;BME280;27787;44.594;11.046;2023-07-02T12:06:37;100375.47;;;27.81;61.07
42125;BME280;27787;44.594;11.046;2023-07-02T12:09:21;100374.38;;;27.84;59.89
42125;BME280;27787;44.594;11.046;2023-07-02T12:12:05;100381.53;;;27.85;59.71
42125;BME280;27787;44.594;11.046;2023-07-02T12:14:49;100374.81;;;27.90;60.53
42125;BME280;27787;44.594;11.046;2023-07-02T12:17:33;100377.09;;;27.97;60.03
42125;BME280;27787;44.594;11.046;2023-07-02T12:20:17;100380.66;;;27.97;59.33
42125;BME280;27787;44.594;11.046;2023-07-02T12:23:01;100376.09;;;27.98;59.44
42125;BME280;27787;44.594;11.046;2023-07-02T12:25:45;100371.13;;;28.04;60.10
42125;BME280;27787;44.594;11.046;2023-07-02T12:28:29;100364.59;;;28.07;59.76
42125;BME280;27787;44.594;11.046;2023-07-02T12:31:14;100363.63;;;28.08;59.63
42125;BME280;27787;44.594;11.046;2023-07-02T12:33:58;100358.94;;;28.10;59.47
42125;BME280;27787;44.594;11.046;2023-07-02T12:36:42;100356.13;;;28.11;58.94
42125;BME280;27787;44.594;11.046;2023-07-02T12:39:26;100352.75;;;28.08;58.14
42125;BME280;27787;44.594;11.046;2023-07-02T12:42:10;100358.41;;;28.05;58.43
42125;BME280;27787;44.594;11.046;2023-07-02T12:44:55;100364.94;;;28.02;58.36
42125;BME280;27787;44.594;11.046;2023-07-02T12:47:39;100359.06;;;28.08;57.17
42125;BME280;27787;44.594;11.046;2023-07-02T12:50:23;100352.97;;;28.17;58.23
42125;BME280;27787;44.594;11.046;2023-07-02T12:53:08;100350.50;;;28.27;58.96
42125;BME280;27787;44.594;11.046;2023-07-02T12:55:53;100352.75;;;28.33;57.22
42125;BME280;27787;44.594;11.046;2023-07-02T12:58:37;100354.19;;;28.39;56.75
42125;BME280;27787;44.594;11.046;2023-07-02T13:01:21;100350.88;;;28.46;55.98
42125;BME280;27787;44.594;11.046;2023-07-02T13:04:05;100348.47;;;28.55;56.54
42125;BME280;27787;44.594;11.046;2023-07-02T13:06:49;100353.63;;;28.70;55.21
42125;BME280;27787;44.594;11.046;2023-07-02T13:09:33;100346.53;;;28.81;55.89
42125;BME280;27787;44.594;11.046;2023-07-02T13:12:17;100352.06;;;28.92;54.81
42125;BME280;27787;44.594;11.046;2023-07-02T13:15:02;100337.88;;;28.99;53.32
42125;BME280;27787;44.594;11.046;2023-07-02T13:17:46;100343.59;;;29.07;53.07
42125;BME280;27787;44.594;11.046;2023-07-02T13:20:31;100338.41;;;29.04;53.75
42125;BME280;27787;44.594;11.046;2023-07-02T13:23:15;100344.47;;;29.08;54.77
42125;BME280;27787;44.594;11.046;2023-07-02T13:25:59;100336.81;;;29.13;54.44
42125;BME280;27787;44.594;11.046;2023-07-02T13:28:43;100350.41;;;29.13;53.21
42125;BME280;27787;44.594;11.046;2023-07-02T13:31:30;100344.09;;;29.13;53.21
42125;BME280;27787;44.594;11.046;2023-07-02T13:34:14;100336.69;;;29.15;52.96
42125;BME280;27787;44.594;11.046;2023-07-02T13:36:58;100339.41;;;29.15;52.42
42125;BME280;27787;44.594;11.046;2023-07-02T13:39:42;100334.25;;;29.23;52.46
42125;BME280;27787;44.594;11.046;2023-07-02T13:42:26;100336.78;;;29.37;53.01
42125;BME280;27787;44.594;11.046;2023-07-02T13:45:10;100336.97;;;29.47;53.15
42125;BME280;27787;44.594;11.046;2023-07-02T13:47:55;100335.13;;;29.58;52.46
42125;BME280;27787;44.594;11.046;2023-07-02T13:50:39;100338.63;;;29.72;52.16
42125;BME280;27787;44.594;11.046;2023-07-02T13:53:23;100332.44;;;29.81;51.47
42125;BME280;27787;44.594;11.046;2023-07-02T13:56:07;100330.84;;;29.89;50.46
42125;BME280;27787;44.594;11.046;2023-07-02T14:01:39;100328.50;;;29.96;49.94
42125;BME280;27787;44.594;11.046;2023-07-02T14:04:23;100321.19;;;30.08;50.21
42125;BME280;27787;44.594;11.046;2023-07-02T14:07:07;100328.50;;;30.18;49.61
42125;BME280;27787;44.594;11.046;2023-07-02T14:09:51;100330.09;;;30.32;49.49
42125;BME280;27787;44.594;11.046;2023-07-02T14:12:36;100316.72;;;30.40;49.31